Hovd, Mongolia
Current Conditions -  °F | °C
As of 10:00 AM on Sunday 23 Nov 2014 (Local Time) from ZWWW Reporting Station
Smoke Smoke  
Wind Chill: 23°   Ceiling: Unl
Heat Index: 23°   Visibility: 2.5mi
Dew Point: 19°   Wind: 2mph
Humidity: 86%   Direction: NA
Pressure: 30.24"   Gusts: NA
Location:  48.02°N, 91.57°E
Report Text: ZWWW 230200Z VRB01MPS 4000 FU NSC M05/M07 Q1024 BECMGTL03502500 FU
Loading
Personal Weather Stations






























Interactive Weather Map New forecast layout! Learn more

10-Day Weather Forecast

Advertisements
Track Severe Weather on mobile